Kurtistown, Hawaii
Current Conditions -  °F | °C
As of 12:53 PM on Saturday 20 Dec 2014 (Local Time) from PHTO Reporting Station
Scattered Clouds Scattered Clouds  
Wind Chill: 82°   Ceiling: Unl
Heat Index: 83°   Visibility: 10mi
Dew Point: 64°   Wind: 8mph
Humidity: 54%   Direction: 140°SE
Pressure: 30.02"   Gusts: NA
Location:  19.59°N, 155.05°W
Report Text: PHTO 202253Z 14007KT 10SM SCT065 28/18 A3002 RMK AO2 SLP164 T02780178 $
Loading
Personal Weather Stations






























Interactive Weather Map New forecast layout! Learn more

10-Day Weather Forecast

Advertisements
Track Severe Weather on mobile